Time;durP1;ratioP1;P1;durP2;ratioP2;P2;SDS_P1;SDS_P2;PMS_P1;PMS_P2;Temp;Humidity;BMP_temperature;BMP_pressure;BME280_temperature;BME280_humidity;BME280_pressure;Samples;Min_cycle;Max_cycle;Signal;HPM_P1;HPM_P2
2023/06/01 00:01:36;;;;;;;0.00;0.00;;;15.00;81.40;;;;;;5070711;28;20216;-63
2023/06/01 00:04:05;;;;;;;0.00;0.00;;;15.00;80.70;;;;;;5057627;28;20203;-63
2023/06/01 00:06:31;;;;;;;0.00;0.00;;;15.00;80.10;;;;;;5070281;28;20177;-63
2023/06/01 00:08:57;;;;;;;0.00;0.00;;;15.10;79.70;;;;;;5070364;28;20208;-63
2023/06/01 00:11:23;;;;;;;0.00;0.00;;;15.20;79.50;;;;;;5070477;28;20204;-63
2023/06/01 00:13:49;;;;;;;0.00;0.00;;;15.30;79.10;;;;;;5070876;28;20181;-64
2023/06/01 00:16:16;;;;;;;0.00;0.00;;;15.40;78.70;;;;;;5071100;28;20497;-63
2023/06/01 00:18:41;;;;;;;0.00;0.00;;;15.40;78.00;;;;;;5070819;28;20213;-63
2023/06/01 00:21:07;;;;;;;0.00;0.00;;;15.50;77.90;;;;;;5070314;28;20176;-63
2023/06/01 00:23:33;;;;;;;0.00;0.00;;;15.60;77.60;;;;;;5070844;28;20552;-63
2023/06/01 00:25:59;;;;;;;0.00;0.00;;;15.70;77.40;;;;;;5070265;28;20313;-63
2023/06/01 00:28:25;;;;;;;0.00;0.00;;;15.70;77.10;;;;;;5070110;28;20173;-64
2023/06/01 00:30:52;;;;;;;0.00;0.00;;;15.70;77.00;;;;;;5069126;28;20192;-63
2023/06/01 00:33:18;;;;;;;0.00;0.00;;;15.80;77.00;;;;;;5070530;28;20187;-63
2023/06/01 00:35:44;;;;;;;0.00;0.00;;;15.80;77.00;;;;;;5069798;28;20600;-63
2023/06/01 00:38:09;;;;;;;0.00;0.00;;;15.80;76.90;;;;;;5070106;28;20176;-63
2023/06/01 00:40:35;;;;;;;0.00;0.00;;;15.90;76.80;;;;;;5069613;28;20173;-63
2023/06/01 00:43:00;;;;;;;0.00;0.00;;;15.90;76.60;;;;;;5070192;28;20207;-64
2023/06/01 00:45:26;;;;;;;0.00;0.00;;;15.90;76.40;;;;;;5070441;28;20543;-63
2023/06/01 00:47:53;;;;;;;0.00;0.00;;;16.00;76.50;;;;;;5070456;28;20180;-63
2023/06/01 00:50:18;;;;;;;0.00;0.00;;;16.00;76.50;;;;;;5070860;28;20176;-63
2023/06/01 00:52:48;;;;;;;0.00;0.00;;;16.00;76.60;;;;;;5070804;28;20219;-63
2023/06/01 00:55:13;;;;;;;0.00;0.00;;;16.00;76.60;;;;;;5070188;28;20664;-63
2023/06/01 00:57:39;;;;;;;0.00;0.00;;;16.00;76.60;;;;;;5068986;28;20191;-63
2023/06/01 01:00:09;;;;;;;0.03;0.03;;;16.10;76.70;;;;;;5069948;28;20205;-63
2023/06/01 01:02:40;;;;;;;0.00;0.00;;;16.10;76.70;;;;;;5070306;28;20173;-63
2023/06/01 01:05:10;;;;;;;0.10;0.10;;;16.10;76.80;;;;;;5069973;28;20524;-63
2023/06/01 01:07:51;;;;;;;0.00;0.00;;;16.10;76.80;;;;;;5070097;28;20271;-63
2023/06/01 01:10:33;;;;;;;0.00;0.00;;;16.10;76.80;;;;;;5070482;28;20185;-63
2023/06/01 01:13:02;;;;;;;0.00;0.00;;;16.00;76.70;;;;;;5069483;28;20216;-63
2023/06/01 01:15:41;;;;;;;0.00;0.00;;;16.10;76.80;;;;;;5070179;28;20185;-63
2023/06/01 01:18:22;;;;;;;0.00;0.00;;;16.10;76.90;;;;;;5070119;28;20173;-63
2023/06/01 01:20:57;;;;;;;0.00;0.00;;;16.10;77.00;;;;;;5071516;28;20188;-63
2023/06/01 01:23:48;;;;;;;0.00;0.00;;;16.10;77.10;;;;;;5073786;28;20275;-63
2023/06/01 01:26:35;;;;;;;0.00;0.00;;;16.00;77.20;;;;;;5073547;28;20278;-63
2023/06/01 01:29:05;;;;;;;0.00;0.00;;;16.00;77.50;;;;;;5072896;28;20184;-63
2023/06/01 01:31:32;;;;;;;0.00;0.00;;;16.00;77.50;;;;;;5073169;28;20209;-63
2023/06/01 01:33:58;;;;;;;0.05;0.05;;;16.00;77.80;;;;;;5072781;28;20185;-63
2023/06/01 01:36:25;;;;;;;0.00;0.00;;;16.00;77.80;;;;;;5073777;28;20180;-63
2023/06/01 01:38:50;;;;;;;0.00;0.00;;;16.00;77.70;;;;;;5073059;28;20188;-63
2023/06/01 01:41:16;;;;;;;0.00;0.00;;;15.90;77.90;;;;;;5073221;28;20193;-63
2023/06/01 01:43:42;;;;;;;0.00;0.00;;;15.90;78.60;;;;;;5073084;28;20195;-63
2023/06/01 01:46:49;;;;;;;0.00;0.00;;;15.80;79.00;;;;;;5073535;28;20261;-63
2023/06/01 01:49:40;;;;;;;0.00;0.00;;;15.80;79.60;;;;;;5061667;28;20231;-63
2023/06/01 01:52:26;;;;;;;0.08;0.08;;;15.80;80.40;;;;;;5073471;28;20220;-63
2023/06/01 01:54:53;;;;;;;0.00;0.00;;;15.70;80.70;;;;;;5073336;28;20164;-63
2023/06/01 01:57:19;;;;;;;0.00;0.00;;;15.60;81.50;;;;;;5073165;28;20193;-63
2023/06/01 01:59:49;;;;;;;0.00;0.00;;;15.60;81.70;;;;;;5073073;28;20203;-63
2023/06/01 02:02:14;;;;;;;0.00;0.00;;;15.50;81.90;;;;;;5072932;28;20176;-63
2023/06/01 02:04:41;;;;;;;0.00;0.00;;;15.50;82.40;;;;;;5071987;28;20647;-63
2023/06/01 02:07:07;;;;;;;0.00;0.00;;;15.40;82.60;;;;;;5070865;28;20212;-63
2023/06/01 02:09:33;;;;;;;0.00;0.00;;;15.40;82.80;;;;;;5073009;28;20212;-63
2023/06/01 02:11:59;;;;;;;0.00;0.00;;;15.30;83.10;;;;;;5072759;28;20557;-63
2023/06/01 02:14:25;;;;;;;0.00;0.00;;;15.20;83.40;;;;;;5072901;28;20612;-63
2023/06/01 02:16:50;;;;;;;0.10;0.10;;;15.20;83.70;;;;;;5072670;28;20180;-63
2023/06/01 02:19:16;;;;;;;0.00;0.00;;;15.10;84.10;;;;;;5071325;28;20223;-63
2023/06/01 02:21:42;;;;;;;0.20;0.20;;;15.10;84.70;;;;;;5072422;28;20246;-63
2023/06/01 02:24:08;;;;;;;0.00;0.00;;;15.00;85.20;;;;;;5072018;28;20192;-63
2023/06/01 02:26:35;;;;;;;0.00;0.00;;;15.00;85.90;;;;;;5071999;28;20740;-63
2023/06/01 02:29:02;;;;;;;0.00;0.00;;;15.00;86.40;;;;;;5072398;28;20644;-63
2023/06/01 02:31:28;;;;;;;0.00;0.00;;;14.90;86.40;;;;;;5072246;28;20733;-63
2023/06/01 02:33:53;;;;;;;0.00;0.00;;;14.90;86.80;;;;;;5060811;28;20184;-63
2023/06/01 02:36:20;;;;;;;0.10;0.10;;;14.80;86.90;;;;;;5071226;28;20299;-63
2023/06/01 02:38:47;;;;;;;0.00;0.00;;;14.80;87.40;;;;;;5071995;28;20662;-63
2023/06/01 02:41:12;;;;;;;0.00;0.00;;;14.80;88.10;;;;;;5072130;28;20633;-63
2023/06/01 02:43:38;;;;;;;0.00;0.00;;;14.70;88.70;;;;;;5072563;28;20196;-63
2023/06/01 02:46:04;;;;;;;0.00;0.00;;;14.70;89.10;;;;;;5072324;28;20189;-63
2023/06/01 02:48:30;;;;;;;0.00;0.00;;;14.70;89.70;;;;;;5072626;28;20169;-63
2023/06/01 02:50:55;;;;;;;0.00;0.00;;;14.70;90.00;;;;;;5071859;28;20642;-63
2023/06/01 02:53:21;;;;;;;0.00;0.00;;;14.70;90.10;;;;;;5070963;28;20184;-63
2023/06/01 02:55:47;;;;;;;0.00;0.00;;;14.70;90.30;;;;;;5072348;28;20577;-63
2023/06/01 02:58:16;;;;;;;0.00;0.00;;;14.70;90.50;;;;;;5072285;28;20172;-63
2023/06/01 03:00:42;;;;;;;0.00;0.00;;;14.60;90.60;;;;;;5071986;28;20676;-63
2023/06/01 03:03:08;;;;;;;0.00;0.00;;;14.60;91.10;;;;;;5072286;28;20210;-63
2023/06/01 03:05:35;;;;;;;0.00;0.00;;;14.50;91.40;;;;;;5072176;28;20216;-63
2023/06/01 03:08:01;;;;;;;0.00;0.00;;;14.50;91.50;;;;;;5072205;28;20187;-63
2023/06/01 03:10:26;;;;;;;0.00;0.00;;;14.50;91.60;;;;;;5071831;28;20177;-63
2023/06/01 03:12:52;;;;;;;0.00;0.00;;;14.40;91.90;;;;;;5071265;28;20731;-63
2023/06/01 03:15:17;;;;;;;0.00;0.00;;;14.40;92.00;;;;;;5071936;28;20177;-63
2023/06/01 03:17:43;;;;;;;0.00;0.00;;;14.40;92.00;;;;;;5071388;28;20176;-63
2023/06/01 03:20:14;;;;;;;0.00;0.00;;;14.40;92.00;;;;;;5070521;28;20175;-63
2023/06/01 03:22:44;;;;;;;0.20;0.20;;;14.40;92.10;;;;;;5071583;28;20267;-63
2023/06/01 03:25:12;;;;;;;0.00;0.00;;;14.40;92.10;;;;;;5070962;28;20973;-63
2023/06/01 03:27:38;;;;;;;0.00;0.00;;;14.30;92.20;;;;;;5071332;28;20572;-63
2023/06/01 03:30:04;;;;;;;0.00;0.00;;;14.30;92.20;;;;;;5070883;28;20192;-63
2023/06/01 03:32:30;;;;;;;0.00;0.00;;;14.30;92.40;;;;;;5064373;28;20569;-63
2023/06/01 03:34:55;;;;;;;0.00;0.00;;;14.30;92.40;;;;;;5071167;28;20247;-63
2023/06/01 03:37:21;;;;;;;0.00;0.00;;;14.30;92.80;;;;;;5070901;28;20176;-63
2023/06/01 03:39:47;;;;;;;0.00;0.00;;;14.40;92.60;;;;;;5085833;28;20552;-63
2023/06/01 03:42:13;;;;;;;0.00;0.00;;;14.40;92.60;;;;;;5085106;28;20663;-63
2023/06/01 03:44:41;;;;;;;0.00;0.00;;;14.40;92.70;;;;;;5070774;28;20218;-61
2023/06/01 03:47:07;;;;;;;0.00;0.00;;;14.40;92.90;;;;;;5070976;28;20177;-63
2023/06/01 03:49:32;;;;;;;0.00;0.00;;;14.40;93.10;;;;;;5070972;28;20176;-61
2023/06/01 03:51:58;;;;;;;0.10;0.10;;;14.40;93.00;;;;;;5070272;28;20295;-61
2023/06/01 03:54:23;;;;;;;0.00;0.00;;;14.40;93.10;;;;;;5070997;28;20310;-59
2023/06/01 03:56:49;;;;;;;0.08;0.08;;;14.40;93.10;;;;;;5070032;28;20252;-61
2023/06/01 03:59:15;;;;;;;0.00;0.00;;;14.40;93.20;;;;;;5070723;28;20230;-61
2023/06/01 04:01:42;;;;;;;0.00;0.00;;;14.40;93.20;;;;;;5070818;28;20188;-62
2023/06/01 04:04:08;;;;;;;0.00;0.00;;;14.50;93.30;;;;;;5070028;28;20260;-59
2023/06/01 04:06:35;;;;;;;0.00;0.00;;;14.50;93.30;;;;;;5070315;28;20173;-60
2023/06/01 04:09:06;;;;;;;0.00;0.00;;;14.50;93.40;;;;;;5070582;28;20188;-61
2023/06/01 04:11:33;;;;;;;0.00;0.00;;;14.50;93.30;;;;;;5069640;28;20303;-61
2023/06/01 04:13:58;;;;;;;0.00;0.00;;;14.50;93.40;;;;;;5069497;28;20184;-64
2023/06/01 04:16:24;;;;;;;0.00;0.00;;;14.50;93.40;;;;;;5065186;28;20218;-61
2023/06/01 04:18:50;;;;;;;0.00;0.00;;;14.50;93.50;;;;;;5069486;28;20695;-61
2023/06/01 04:21:16;;;;;;;0.00;0.00;;;14.60;93.70;;;;;;5070679;28;20211;-61
2023/06/01 04:23:42;;;;;;;0.00;0.00;;;14.70;93.80;;;;;;5070451;28;20244;-62
2023/06/01 04:26:07;;;;;;;0.00;0.00;;;14.90;93.60;;;;;;5070291;28;20228;-61
2023/06/01 04:28:33;;;;;;;0.00;0.00;;;15.20;93.40;;;;;;5070224;28;20203;-61
2023/06/01 04:31:00;;;;;;;0.00;0.00;;;15.50;92.70;;;;;;5070293;28;20263;-61
2023/06/01 04:33:27;;;;;;;0.00;0.00;;;15.80;92.20;;;;;;5070357;28;20269;-61
2023/06/01 04:35:53;;;;;;;0.00;0.00;;;16.10;91.60;;;;;;5070432;28;20219;-61
2023/06/01 04:38:24;;;;;;;0.00;0.00;;;16.40;91.00;;;;;;5070497;28;20204;-61
2023/06/01 04:40:53;;;;;;;0.00;0.00;;;16.70;90.30;;;;;;5070274;28;20696;-61
2023/06/01 04:43:19;;;;;;;0.00;0.00;;;17.00;89.60;;;;;;5068757;28;20659;-61
2023/06/01 04:45:45;;;;;;;0.00;0.00;;;17.30;88.90;;;;;;5070206;28;20713;-61
2023/06/01 04:48:11;;;;;;;0.00;0.00;;;17.60;87.50;;;;;;5064650;28;20227;-61
2023/06/01 04:50:37;;;;;;;0.00;0.00;;;17.80;86.30;;;;;;5070254;28;20538;-61
2023/06/01 04:53:03;;;;;;;0.00;0.00;;;18.20;85.10;;;;;;5050266;28;20216;-61
2023/06/01 04:55:29;;;;;;;0.00;0.00;;;18.50;83.10;;;;;;5053612;28;20181;-61
2023/06/01 04:57:55;;;;;;;0.00;0.00;;;18.90;81.70;;;;;;5054276;28;20258;-62
2023/06/01 05:00:21;;;;;;;0.00;0.00;;;19.20;80.70;;;;;;5064242;28;20209;-62
2023/06/01 05:02:48;;;;;;;0.00;0.00;;;19.50;80.10;;;;;;5074234;28;20203;-62
2023/06/01 05:05:15;;;;;;;0.00;0.00;;;19.90;78.50;;;;;;5074426;28;20180;-62
2023/06/01 05:07:41;;;;;;;0.00;0.00;;;20.30;77.10;;;;;;5074379;28;20256;-62
2023/06/01 05:10:09;;;;;;;0.00;0.00;;;20.60;75.70;;;;;;5074251;28;20620;-62
2023/06/01 05:12:36;;;;;;;0.00;0.00;;;21.00;74.30;;;;;;5074264;28;20235;-62
2023/06/01 05:15:04;;;;;;;0.00;0.00;;;21.30;72.80;;;;;;5074069;28;20520;-62
2023/06/01 05:17:29;;;;;;;0.00;0.00;;;21.70;72.00;;;;;;5073980;28;20177;-61
2023/06/01 05:19:56;;;;;;;0.30;0.30;;;22.00;71.00;;;;;;5074094;28;20299;-62
2023/06/01 05:22:22;;;;;;;0.00;0.00;;;22.30;69.90;;;;;;5073945;28;20652;-62
2023/06/01 05:24:48;;;;;;;0.00;0.00;;;22.50;69.10;;;;;;5074014;28;20184;-62
2023/06/01 05:27:14;;;;;;;0.00;0.00;;;22.80;68.40;;;;;;5073736;28;20221;-61
2023/06/01 05:29:40;;;;;;;0.00;0.00;;;23.10;67.40;;;;;;5073814;28;20172;-62
2023/06/01 05:32:06;;;;;;;0.00;0.00;;;23.40;66.00;;;;;;5073637;28;20243;-62
2023/06/01 05:34:31;;;;;;;0.05;0.05;;;23.80;65.10;;;;;;5073849;28;20705;-62
2023/06/01 05:36:57;;;;;;;0.00;0.00;;;24.20;64.50;;;;;;5073546;28;20188;-62
2023/06/01 05:39:27;;;;;;;0.00;0.00;;;24.50;63.40;;;;;;5073962;28;20199;-62
2023/06/01 05:41:53;;;;;;;0.00;0.00;;;24.90;62.80;;;;;;5073506;28;20181;-62
2023/06/01 05:44:19;;;;;;;0.00;0.00;;;25.30;61.10;;;;;;5073605;28;20173;-62
2023/06/01 05:46:45;;;;;;;0.00;0.00;;;25.70;60.60;;;;;;5073414;28;20219;-62
2023/06/01 05:49:10;;;;;;;0.00;0.00;;;26.00;59.50;;;;;;5073632;28;20613;-62
2023/06/01 05:51:37;;;;;;;0.00;0.00;;;26.30;58.80;;;;;;5073395;28;20695;-62
2023/06/01 05:54:04;;;;;;;0.00;0.00;;;26.60;58.00;;;;;;5073488;28;20771;-62
2023/06/01 05:56:30;;;;;;;0.00;0.00;;;26.90;57.80;;;;;;5073472;28;20197;-62
2023/06/01 05:58:56;;;;;;;0.00;0.00;;;27.20;57.20;;;;;;5073395;28;20264;-63
2023/06/01 06:01:22;;;;;;;0.00;0.00;;;27.40;56.30;;;;;;5073390;28;20287;-62
2023/06/01 06:03:47;;;;;;;0.00;0.00;;;27.70;55.60;;;;;;5073154;28;20173;-62
2023/06/01 06:06:13;;;;;;;0.00;0.00;;;28.10;54.60;;;;;;5072823;28;20184;-62
2023/06/01 06:08:38;;;;;;;0.00;0.00;;;28.50;53.90;;;;;;5073294;28;20184;-62
2023/06/01 06:11:04;;;;;;;0.00;0.00;;;28.80;53.10;;;;;;5073073;28;20184;-62
2023/06/01 06:13:30;;;;;;;0.00;0.00;;;29.10;52.30;;;;;;5073366;28;20188;-62
2023/06/01 06:15:55;;;;;;;0.00;0.00;;;29.40;51.80;;;;;;5072941;28;20299;-62
2023/06/01 06:18:21;;;;;;;0.00;0.00;;;29.60;50.60;;;;;;5073128;28;20253;-62
2023/06/01 06:20:47;;;;;;;0.00;0.00;;;29.60;49.50;;;;;;5073100;28;20533;-62
2023/06/01 06:23:12;;;;;;;0.00;0.00;;;29.70;48.70;;;;;;5073111;28;20662;-62
2023/06/01 06:25:40;;;;;;;0.00;0.00;;;29.70;48.40;;;;;;5072869;28;20587;-62
2023/06/01 06:28:05;;;;;;;0.00;0.00;;;29.70;48.50;;;;;;5072815;28;20180;-62
2023/06/01 06:30:31;;;;;;;0.00;0.00;;;29.80;48.60;;;;;;5073095;28;20866;-62
2023/06/01 06:32:57;;;;;;;0.00;0.00;;;30.10;48.50;;;;;;5072508;28;20243;-63
2023/06/01 06:35:22;;;;;;;0.00;0.00;;;30.40;47.60;;;;;;5072960;28;20247;-60
2023/06/01 06:37:48;;;;;;;0.00;0.00;;;30.60;47.60;;;;;;5072425;28;20279;-60
2023/06/01 06:40:13;;;;;;;0.00;0.00;;;30.90;47.40;;;;;;5072889;28;20173;-60
2023/06/01 06:42:40;;;;;;;0.00;0.00;;;31.20;46.50;;;;;;5072548;28;20208;-61
2023/06/01 06:45:06;;;;;;;0.00;0.00;;;31.40;46.30;;;;;;5072648;28;20524;-60
2023/06/01 06:47:32;;;;;;;0.00;0.00;;;31.50;46.50;;;;;;5072418;28;20203;-60
2023/06/01 06:49:57;;;;;;;0.10;0.10;;;31.70;46.00;;;;;;5069817;28;20321;-60
2023/06/01 06:52:23;;;;;;;0.00;0.00;;;32.20;45.60;;;;;;5084442;28;20303;-62
2023/06/01 06:54:48;;;;;;;0.00;0.00;;;32.50;45.20;;;;;;5072536;28;20184;-62
2023/06/01 06:57:14;;;;;;;0.00;0.00;;;32.80;44.30;;;;;;5072588;28;20171;-62
2023/06/01 06:59:39;;;;;;;0.00;0.00;;;33.10;44.10;;;;;;5072450;28;20172;-62
2023/06/01 07:02:05;;;;;;;0.00;0.00;;;33.30;43.40;;;;;;5072538;28;20172;-61
2023/06/01 07:04:31;;;;;;;0.00;0.00;;;33.40;43.20;;;;;;5072542;28;20253;-61
2023/06/01 07:06:57;;;;;;;0.00;0.00;;;33.50;43.20;;;;;;5072374;28;20196;-61
2023/06/01 07:09:22;;;;;;;0.03;0.03;;;33.60;43.70;;;;;;5072539;28;20222;-61
2023/06/01 07:11:48;;;;;;;0.00;0.00;;;33.70;42.70;;;;;;5072245;28;20296;-62
2023/06/01 07:14:14;;;;;;;0.00;0.00;;;33.80;42.50;;;;;;5072322;28;20176;-62
2023/06/01 07:16:40;;;;;;;0.00;0.00;;;34.00;42.20;;;;;;5072311;28;20207;-61
2023/06/01 07:19:06;;;;;;;0.00;0.00;;;33.70;42.20;;;;;;5071146;28;20184;-61
2023/06/01 07:21:32;;;;;;;0.00;0.00;;;33.70;43.20;;;;;;5072320;28;20184;-61
2023/06/01 07:23:58;;;;;;;0.20;0.20;;;34.00;42.50;;;;;;5071976;28;20176;-61
2023/06/01 07:26:26;;;;;;;0.00;0.00;;;34.20;42.00;;;;;;5072012;28;20251;-62
2023/06/01 07:28:53;;;;;;;0.00;0.00;;;34.30;41.50;;;;;;5072061;28;20173;-62
2023/06/01 07:31:19;;;;;;;0.00;0.00;;;34.30;41.50;;;;;;5071918;28;20233;-62
2023/06/01 07:33:45;;;;;;;0.00;0.00;;;34.50;41.50;;;;;;5071736;28;20172;-61
2023/06/01 07:36:11;;;;;;;0.00;0.00;;;34.40;40.90;;;;;;5072112;28;20561;-61
2023/06/01 07:38:37;;;;;;;0.00;0.00;;;34.20;41.70;;;;;;5071784;28;20176;-61
2023/06/01 07:41:03;;;;;;;0.00;0.00;;;34.10;41.80;;;;;;5071882;28;20580;-61
2023/06/01 07:43:28;;;;;;;0.00;0.00;;;34.10;41.60;;;;;;5071830;28;20172;-61
2023/06/01 07:45:55;;;;;;;0.00;0.00;;;34.20;41.70;;;;;;5071825;28;20221;-62
2023/06/01 07:48:20;;;;;;;0.00;0.00;;;34.20;41.30;;;;;;5071621;28;20191;-62
2023/06/01 07:50:46;;;;;;;0.22;0.20;;;34.30;41.00;;;;;;5069457;28;20176;-62
2023/06/01 07:53:12;;;;;;;0.00;0.00;;;34.10;41.10;;;;;;5071728;28;20249;-61
2023/06/01 07:55:37;;;;;;;0.00;0.00;;;33.90;40.80;;;;;;5064387;28;20586;-61
2023/06/01 07:58:04;;;;;;;0.00;0.00;;;33.60;41.70;;;;;;5058134;28;20194;-62
2023/06/01 08:00:29;;;;;;;0.00;0.00;;;33.60;42.20;;;;;;5071576;28;20227;-62
2023/06/01 08:02:57;;;;;;;0.00;0.00;;;33.50;41.70;;;;;;5070081;28;20176;-62
2023/06/01 08:05:22;;;;;;;0.00;0.00;;;33.30;42.50;;;;;;5071655;28;20528;-61
2023/06/01 08:07:48;;;;;;;0.00;0.00;;;33.30;42.10;;;;;;5071240;28;20176;-62
2023/06/01 08:10:14;;;;;;;0.00;0.00;;;33.30;42.40;;;;;;5071606;28;20183;-61
2023/06/01 08:12:42;;;;;;;0.00;0.00;;;33.30;42.50;;;;;;5071208;28;20212;-61
2023/06/01 08:15:08;;;;;;;0.00;0.00;;;33.40;42.00;;;;;;5071340;28;20640;-61
2023/06/01 08:17:34;;;;;;;0.00;0.00;;;33.40;41.80;;;;;;5071380;28;20184;-61
2023/06/01 08:20:00;;;;;;;0.10;0.10;;;33.20;42.40;;;;;;5071163;28;20564;-61
2023/06/01 08:22:25;;;;;;;0.00;0.00;;;33.30;43.00;;;;;;5071432;28;20275;-61
2023/06/01 08:24:52;;;;;;;0.20;0.03;;;33.40;42.30;;;;;;5071054;28;20259;-62
2023/06/01 08:27:20;;;;;;;0.00;0.00;;;33.60;42.60;;;;;;5071233;28;20191;-62
2023/06/01 08:29:49;;;;;;;0.00;0.00;;;33.60;43.30;;;;;;5070778;28;20165;-61
2023/06/01 08:32:16;;;;;;;0.00;0.00;;;33.80;41.50;;;;;;5071165;28;20206;-61
2023/06/01 08:34:46;;;;;;;0.00;0.00;;;33.70;41.40;;;;;;5071164;28;20176;-61
2023/06/01 08:37:13;;;;;;;0.00;0.00;;;33.50;42.40;;;;;;5071178;28;20623;-62
2023/06/01 08:39:39;;;;;;;0.00;0.00;;;33.50;43.00;;;;;;5071047;28;20190;-62
2023/06/01 08:42:39;;;;;;;0.00;0.00;;;33.50;43.10;;;;;;5071139;28;20164;-62
2023/06/01 08:45:06;;;;;;;0.00;0.00;;;33.60;42.60;;;;;;5065369;28;20184;-62
2023/06/01 08:47:32;;;;;;;0.25;0.25;;;33.80;42.70;;;;;;5070918;28;20169;-62
2023/06/01 08:49:59;;;;;;;0.00;0.00;;;33.90;42.10;;;;;;5070867;28;20176;-62
2023/06/01 08:52:28;;;;;;;0.63;0.63;;;33.60;41.80;;;;;;5070927;28;20755;-62
2023/06/01 08:54:54;;;;;;;0.00;0.00;;;33.50;43.00;;;;;;5070848;28;20546;-61
2023/06/01 08:57:20;;;;;;;0.00;0.00;;;33.60;42.10;;;;;;5070128;28;20165;-61
2023/06/01 08:59:46;;;;;;;0.00;0.00;;;33.40;42.30;;;;;;5064386;28;20804;-61
2023/06/01 09:02:12;;;;;;;0.00;0.00;;;33.30;43.80;;;;;;5070825;28;20176;-61
2023/06/01 09:04:42;;;;;;;0.00;0.00;;;33.20;43.40;;;;;;5070532;28;20474;-61
2023/06/01 09:07:08;;;;;;;0.00;0.00;;;33.10;43.60;;;;;;5070727;28;20178;-61
2023/06/01 09:09:33;;;;;;;0.00;0.00;;;33.10;42.90;;;;;;5070891;28;20657;-61
2023/06/01 09:12:23;;;;;;;0.00;0.00;;;32.90;43.10;;;;;;5070411;28;20649;-62
2023/06/01 09:14:48;;;;;;;0.00;0.00;;;33.00;44.00;;;;;;5070589;28;20548;-61
2023/06/01 09:17:20;;;;;;;0.00;0.00;;;33.00;44.10;;;;;;5070738;28;20183;-61
2023/06/01 09:19:45;;;;;;;0.00;0.00;;;33.00;43.70;;;;;;5070713;28;20172;-61
2023/06/01 09:22:14;;;;;;;0.00;0.00;;;33.00;43.50;;;;;;5070767;28;20203;-62
2023/06/01 09:24:43;;;;;;;0.00;0.00;;;33.10;44.60;;;;;;5070508;28;20207;-62
2023/06/01 09:27:09;;;;;;;0.00;0.00;;;33.30;43.60;;;;;;5070400;28;20335;-61
2023/06/01 09:29:34;;;;;;;0.00;0.00;;;33.60;44.30;;;;;;5070563;28;20271;-62
2023/06/01 09:32:01;;;;;;;0.00;0.00;;;33.60;42.10;;;;;;5070296;28;20277;-62
2023/06/01 09:34:26;;;;;;;0.00;0.00;;;33.40;41.90;;;;;;5070624;28;20180;-61
2023/06/01 09:36:54;;;;;;;0.00;0.00;;;33.20;42.30;;;;;;5070527;28;20169;-62
2023/06/01 09:39:22;;;;;;;0.00;0.00;;;33.00;43.60;;;;;;5070592;28;20537;-62
2023/06/01 09:42:02;;;;;;;0.25;0.25;;;33.20;43.50;;;;;;5072150;28;20203;-62
2023/06/01 09:44:38;;;;;;;0.00;0.00;;;33.30;43.10;;;;;;5074232;28;20217;-61
2023/06/01 09:47:06;;;;;;;0.00;0.00;;;33.10;43.60;;;;;;5074059;28;20655;-62
2023/06/01 09:49:39;;;;;;;0.00;0.00;;;33.30;43.20;;;;;;5073915;28;20164;-62
2023/06/01 09:52:05;;;;;;;0.00;0.00;;;33.60;43.20;;;;;;5073912;28;20216;-61
2023/06/01 09:54:37;;;;;;;0.00;0.00;;;33.80;42.20;;;;;;5073875;28;20298;-62
2023/06/01 09:57:04;;;;;;;0.00;0.00;;;34.00;42.10;;;;;;5073915;28;20183;-61
2023/06/01 09:59:37;;;;;;;0.00;0.00;;;34.20;40.40;;;;;;5073566;28;20170;-62
2023/06/01 10:02:04;;;;;;;0.05;0.05;;;34.20;40.80;;;;;;5053769;28;20185;-62
2023/06/01 10:04:32;;;;;;;0.00;0.00;;;34.30;41.10;;;;;;5073362;28;20191;-62
2023/06/01 10:06:58;;;;;;;0.00;0.00;;;34.30;40.90;;;;;;5072454;28;20184;-62
2023/06/01 10:09:26;;;;;;;0.00;0.00;;;34.30;41.60;;;;;;5073770;28;20165;-62
2023/06/01 10:11:55;;;;;;;0.00;0.00;;;34.30;40.30;;;;;;5073404;28;20273;-62
2023/06/01 10:14:23;;;;;;;0.00;0.00;;;34.30;40.10;;;;;;5073456;28;20172;-62
2023/06/01 10:16:51;;;;;;;0.00;0.00;;;34.20;39.10;;;;;;5073414;28;20211;-62
2023/06/01 10:19:18;;;;;;;0.00;0.00;;;33.80;39.10;;;;;;5073508;28;20164;-62
2023/06/01 10:21:46;;;;;;;0.00;0.00;;;33.20;40.00;;;;;;5073490;28;20172;-62
2023/06/01 10:24:17;;;;;;;0.00;0.00;;;32.60;40.90;;;;;;5073477;28;20180;-62
2023/06/01 10:27:09;;;;;;;0.10;0.10;;;32.30;41.10;;;;;;5073201;28;20216;-62
2023/06/01 10:29:34;;;;;;;0.00;0.00;;;32.40;41.20;;;;;;5068525;28;20212;-62
2023/06/01 10:32:01;;;;;;;0.00;0.00;;;32.50;41.40;;;;;;5072964;28;20243;-62
2023/06/01 10:34:44;;;;;;;0.00;0.00;;;32.60;41.10;;;;;;5073216;28;20548;-61
2023/06/01 10:37:10;;;;;;;0.00;0.00;;;32.50;40.70;;;;;;5073002;28;20519;-62
2023/06/01 10:39:36;;;;;;;0.00;0.00;;;32.40;41.10;;;;;;5073018;28;20275;-62
2023/06/01 10:42:13;;;;;;;0.00;0.00;;;32.60;40.70;;;;;;5072824;28;20264;-62
2023/06/01 10:44:39;;;;;;;0.00;0.00;;;32.80;41.00;;;;;;5072966;28;20168;-62
2023/06/01 10:47:11;;;;;;;0.00;0.00;;;32.80;39.60;;;;;;5072874;28;20169;-62
2023/06/01 10:49:49;;;;;;;0.00;0.00;;;32.90;40.00;;;;;;5073069;28;20623;-62
2023/06/01 10:52:41;;;;;;;0.00;0.00;;;32.80;39.70;;;;;;5072659;28;20659;-61
2023/06/01 10:55:06;;;;;;;0.00;0.00;;;32.60;39.20;;;;;;5072764;28;20195;-61
2023/06/01 10:57:35;;;;;;;0.00;0.00;;;32.50;40.00;;;;;;5072701;28;20168;-62
2023/06/01 11:00:24;;;;;;;0.00;0.00;;;32.50;39.60;;;;;;5072269;28;20168;-62
2023/06/01 11:02:51;;;;;;;0.00;0.00;;;32.50;38.90;;;;;;5072486;28;20169;-62
2023/06/01 11:05:40;;;;;;;0.00;0.00;;;32.50;39.40;;;;;;5072644;28;20160;-62
2023/06/01 11:08:21;;;;;;;0.00;0.00;;;32.60;40.00;;;;;;5056289;28;20191;-62
2023/06/01 11:10:54;;;;;;;0.00;0.00;;;32.70;40.20;;;;;;5052493;28;20188;-62
2023/06/01 11:13:27;;;;;;;0.00;0.00;;;32.60;40.40;;;;;;5052329;28;20294;-62
2023/06/01 11:16:04;;;;;;;0.00;0.00;;;32.60;39.70;;;;;;5052215;28;20637;-62
2023/06/01 11:18:58;;;;;;;0.00;0.00;;;32.40;39.80;;;;;;5052335;28;20579;-62
2023/06/01 11:21:28;;;;;;;0.00;0.00;;;32.30;39.70;;;;;;5052458;28;20234;-61
2023/06/01 11:23:56;;;;;;;0.00;0.00;;;32.10;40.00;;;;;;5052110;28;20249;-62
2023/06/01 11:26:25;;;;;;;0.10;0.10;;;32.10;40.40;;;;;;5052144;28;20221;-62
2023/06/01 11:28:51;;;;;;;0.03;0.00;;;32.30;40.00;;;;;;5051966;28;20251;-62
2023/06/01 11:31:19;;;;;;;0.00;0.00;;;32.30;39.90;;;;;;5052007;28;20780;-62
2023/06/01 11:33:53;;;;;;;0.00;0.00;;;32.30;40.00;;;;;;5051988;28;20177;-62
2023/06/01 11:36:23;;;;;;;0.00;0.00;;;32.20;40.40;;;;;;5051997;28;20703;-62
2023/06/01 11:38:49;;;;;;;0.00;0.00;;;32.40;39.30;;;;;;5051934;28;20185;-62
2023/06/01 11:41:15;;;;;;;0.00;0.00;;;32.60;39.00;;;;;;5052141;28;20310;-63
2023/06/01 11:43:40;;;;;;;0.00;0.00;;;32.80;38.80;;;;;;5051942;28;20256;-62
2023/06/01 11:46:07;;;;;;;0.00;0.00;;;32.90;38.00;;;;;;5052114;28;20177;-62
2023/06/01 11:48:34;;;;;;;0.00;0.00;;;32.80;37.20;;;;;;5051956;28;20213;-62
2023/06/01 11:51:01;;;;;;;0.00;0.00;;;32.50;37.20;;;;;;5051656;28;20185;-62
2023/06/01 11:53:29;;;;;;;0.00;0.00;;;32.50;38.50;;;;;;5051689;28;20830;-62
2023/06/01 11:55:55;;;;;;;0.00;0.00;;;32.50;38.50;;;;;;5051696;28;20524;-62
2023/06/01 11:58:28;;;;;;;0.00;0.00;;;32.50;37.70;;;;;;5051688;28;20177;-62
2023/06/01 12:00:55;;;;;;;0.00;0.00;;;32.30;38.20;;;;;;5066001;28;20184;-62
2023/06/01 12:03:21;;;;;;;0.00;0.00;;;32.30;38.60;;;;;;5071313;28;20708;-62
2023/06/01 12:05:49;;;;;;;0.10;0.10;;;32.40;38.10;;;;;;5071296;28;20176;-62
2023/06/01 12:08:20;;;;;;;0.00;0.00;;;32.40;37.60;;;;;;5053884;28;20247;-62
2023/06/01 12:10:50;;;;;;;0.00;0.00;;;32.40;37.90;;;;;;5051680;28;20271;-63
2023/06/01 12:13:16;;;;;;;0.00;0.00;;;32.40;38.20;;;;;;5051609;28;20232;-62
2023/06/01 12:15:43;;;;;;;0.00;0.00;;;32.40;37.60;;;;;;5051572;28;20193;-62
2023/06/01 12:18:08;;;;;;;0.00;0.00;;;32.20;36.90;;;;;;5051561;28;20205;-62
2023/06/01 12:20:36;;;;;;;0.00;0.00;;;32.00;37.10;;;;;;5051583;28;20177;-62
2023/06/01 12:23:13;;;;;;;0.00;0.00;;;31.90;37.20;;;;;;5051262;28;20181;-62
2023/06/01 12:25:52;;;;;;;0.00;0.00;;;31.70;38.30;;;;;;5051191;28;20304;-62
2023/06/01 12:28:19;;;;;;;0.00;0.00;;;31.40;38.10;;;;;;5051411;28;20169;-62
2023/06/01 12:30:46;;;;;;;0.00;0.00;;;31.30;39.10;;;;;;5051276;28;20629;-62
2023/06/01 12:33:30;;;;;;;0.00;0.00;;;31.30;38.70;;;;;;5051178;28;20217;-61
2023/06/01 12:35:56;;;;;;;0.00;0.00;;;31.00;38.70;;;;;;5051204;28;20204;-62
2023/06/01 12:38:22;;;;;;;0.00;0.00;;;30.90;39.20;;;;;;5051391;28;20181;-62
2023/06/01 12:41:07;;;;;;;0.00;0.00;;;30.80;39.70;;;;;;5051225;28;20203;-62
2023/06/01 12:43:33;;;;;;;0.00;0.00;;;30.80;39.80;;;;;;5051326;28;20188;-62
2023/06/01 12:45:59;;;;;;;0.00;0.00;;;31.00;40.10;;;;;;5051013;28;20173;-62
2023/06/01 12:48:36;;;;;;;0.08;0.08;;;31.10;40.30;;;;;;5051181;28;20185;-61
2023/06/01 12:51:02;;;;;;;0.00;0.00;;;31.00;39.90;;;;;;5050823;28;20272;-62
2023/06/01 12:53:29;;;;;;;0.00;0.00;;;31.20;39.40;;;;;;5050983;28;20212;-62